Time;durP1;ratioP1;P1;durP2;ratioP2;P2;SDS_P1;SDS_P2;PMS_P1;PMS_P2;Temp;Humidity;BMP_temperature;BMP_pressure;BME280_temperature;BME280_humidity;BME280_pressure;Samples;Min_cycle;Max_cycle;Signal;HPM_P1;HPM_P2
2023/12/03 00:02:06;;;;;;;37.75;19.70;;;;;;;2.28;78.29;101845.25;7393033;19;20375;-66
2023/12/03 00:04:36;;;;;;;42.05;20.25;;;;;;;2.34;78.00;101846.88;7392620;19;20028;-66
2023/12/03 00:07:04;;;;;;;41.88;20.67;;;;;;;2.20;78.46;101834.97;7392210;19;20396;-66
2023/12/03 00:09:33;;;;;;;40.92;21.45;;;;;;;2.26;78.63;101836.59;7391536;19;20022;-66
2023/12/03 00:12:01;;;;;;;37.80;19.70;;;;;;;2.26;78.41;101843.59;7393920;19;20011;-67
2023/12/03 00:14:29;;;;;;;41.75;20.95;;;;;;;2.32;78.42;101840.81;7393700;19;20015;-65
2023/12/03 00:16:57;;;;;;;37.95;20.23;;;;;;;2.29;78.38;101840.88;7391798;19;20500;-65
2023/12/03 00:19:25;;;;;;;38.45;19.15;;;;;;;2.27;78.20;101846.16;7393133;19;20011;-65
2023/12/03 00:21:53;;;;;;;37.78;20.02;;;;;;;2.34;78.67;101842.53;7390423;19;20483;-65
2023/12/03 00:24:21;;;;;;;42.17;20.90;;;;;;;2.29;78.39;101847.00;7393943;19;20022;-65
2023/12/03 00:26:49;;;;;;;39.17;19.42;;;;;;;2.33;78.57;101840.81;7393155;19;20032;-65
2023/12/03 00:29:17;;;;;;;38.45;20.05;;;;;;;2.26;78.30;101841.81;7393678;19;20018;-65
2023/12/03 00:31:45;;;;;;;40.13;20.75;;;;;;;2.19;78.75;101838.47;7390598;19;20493;-65
2023/12/03 00:34:13;;;;;;;38.80;19.25;;;;;;;2.08;79.36;101840.47;7391764;19;20603;-64
2023/12/03 00:36:41;;;;;;;42.17;19.70;;;;;;;2.15;79.64;101854.25;7391693;19;20026;-64
2023/12/03 00:39:09;;;;;;;38.80;20.77;;;;;;;2.32;79.18;101844.28;7393605;19;20014;-64
2023/12/03 00:41:38;;;;;;;40.45;20.73;;;;;;;2.40;78.55;101845.00;7391104;19;20030;-65
2023/12/03 00:44:05;;;;;;;40.03;20.20;;;;;;;2.25;78.83;101850.56;7391220;19;20026;-67
2023/12/03 00:46:33;;;;;;;39.55;19.75;;;;;;;1.97;80.20;101859.84;7393228;19;20026;-67
2023/12/03 00:49:01;;;;;;;38.42;19.85;;;;;;;2.15;80.33;101856.88;7392695;19;20015;-67
2023/12/03 00:51:29;;;;;;;37.72;19.17;;;;;;;2.26;79.80;101854.03;7391188;19;20022;-67
2023/12/03 00:53:57;;;;;;;37.95;18.92;;;;;;;2.01;80.59;101867.59;7392462;19;20018;-67
2023/12/03 00:56:25;;;;;;;38.13;20.20;;;;;;;2.12;81.06;101865.63;7392760;19;20034;-67
2023/12/03 00:58:52;;;;;;;37.58;19.60;;;;;;;2.24;80.14;101866.25;7391072;19;20018;-67
2023/12/03 01:01:20;;;;;;;39.15;19.98;;;;;;;2.10;80.23;101863.94;7390363;19;20026;-66
2023/12/03 01:03:48;;;;;;;35.83;19.70;;;;;;;2.30;80.14;101864.38;7389303;19;20347;-67
2023/12/03 01:06:17;;;;;;;35.35;18.98;;;;;;;2.23;79.73;101873.25;7392216;19;20026;-66
2023/12/03 01:08:45;;;;;;;36.80;18.80;;;;;;;2.01;80.29;101875.44;7392075;19;20043;-66
2023/12/03 01:11:13;;;;;;;36.00;19.20;;;;;;;1.90;81.21;101877.41;7389021;19;20021;-69
2023/12/03 01:13:41;;;;;;;35.83;18.75;;;;;;;2.01;81.16;101877.19;7392260;19;20023;-67
2023/12/03 01:16:15;;;;;;;33.25;18.38;;;;;;;2.10;80.45;101875.25;7390504;19;20014;-67
2023/12/03 01:18:44;;;;;;;38.60;20.02;;;;;;;1.91;81.27;101880.00;7392266;19;20014;-68
2023/12/03 01:21:12;;;;;;;37.30;19.10;;;;;;;1.93;82.04;101885.19;7388733;19;20018;-68
2023/12/03 01:23:39;;;;;;;37.28;19.42;;;;;;;2.30;80.54;101887.91;7391302;19;20014;-67
2023/12/03 01:26:07;;;;;;;38.00;19.70;;;;;;;2.50;79.21;101886.63;7392373;19;20372;-67
2023/12/03 01:28:35;;;;;;;37.20;19.38;;;;;;;2.40;79.11;101884.22;7389977;19;20019;-67
2023/12/03 01:31:03;;;;;;;38.97;19.33;;;;;;;2.31;79.57;101891.38;7390346;19;20430;-67
2023/12/03 01:33:31;;;;;;;36.72;20.35;;;;;;;2.31;79.74;101892.22;7391771;19;20023;-67
2023/12/03 01:35:59;;;;;;;36.40;18.55;;;;;;;2.31;79.50;101900.06;7391647;19;20024;-66
2023/12/03 01:38:27;;;;;;;39.20;20.05;;;;;;;2.29;80.18;101916.66;7390530;19;20374;-66
2023/12/03 01:40:55;;;;;;;37.20;19.52;;;;;;;2.25;79.90;101909.78;7389167;19;20026;-66
2023/12/03 01:43:23;;;;;;;38.92;20.65;;;;;;;2.28;80.09;101915.81;7390119;19;20023;-68
2023/12/03 01:45:51;;;;;;;39.53;19.88;;;;;;;2.38;79.77;101924.34;7391378;19;20039;-68
2023/12/03 01:48:19;;;;;;;37.05;20.15;;;;;;;2.25;80.26;101922.84;7391306;19;20474;-68
2023/12/03 01:50:49;;;;;;;38.33;20.40;;;;;;;2.38;80.03;101919.97;7389090;19;20043;-68
2023/12/03 01:53:18;;;;;;;34.00;18.90;;;;;;;2.42;79.55;101926.00;7389646;19;20022;-69
2023/12/03 01:55:46;;;;;;;39.17;19.67;;;;;;;2.30;79.85;101919.28;7391238;19;20018;-69
2023/12/03 01:58:14;;;;;;;41.38;20.58;;;;;;;1.87;81.21;101907.06;7389891;19;20031;-68
2023/12/03 02:00:42;;;;;;;42.28;21.27;;;;;;;1.99;81.64;101921.63;7388019;19;20780;-68
2023/12/03 02:03:10;;;;;;;36.80;19.23;;;;;;;2.09;81.15;101923.16;7389869;19;20027;-67
2023/12/03 02:05:38;;;;;;;38.03;19.95;;;;;;;2.18;80.73;101925.59;7389450;19;20011;-66
2023/12/03 02:08:06;;;;;;;39.30;19.73;;;;;;;2.14;80.96;101928.31;7389204;19;20017;-66
2023/12/03 02:10:34;;;;;;;38.15;20.02;;;;;;;2.08;81.62;101926.66;7388884;19;20027;-69
2023/12/03 02:13:02;;;;;;;38.70;20.00;;;;;;;2.18;80.40;101923.00;7389280;19;20015;-69
2023/12/03 02:15:30;;;;;;;39.00;20.48;;;;;;;1.77;82.03;101930.75;7389110;19;20019;-69
2023/12/03 02:17:57;;;;;;;41.58;20.63;;;;;;;1.68;82.94;101919.59;7390550;19;20081;-69
2023/12/03 02:20:25;;;;;;;37.58;20.52;;;;;;;1.60;83.21;101920.59;7388835;19;20024;-68
2023/12/03 02:23:02;;;;;;;37.22;19.70;;;;;;;1.89;83.09;101923.53;7389331;19;20501;-68
2023/12/03 02:25:30;;;;;;;38.45;20.23;;;;;;;2.27;81.39;101921.94;7389237;19;20010;-69
2023/12/03 02:27:58;;;;;;;39.92;20.52;;;;;;;2.00;81.89;101928.56;7390914;19;20018;-69
2023/12/03 02:30:25;;;;;;;39.85;20.67;;;;;;;1.90;82.55;101924.41;7393764;19;20017;-69
2023/12/03 02:32:53;;;;;;;38.80;19.85;;;;;;;1.79;82.92;101929.81;7396016;19;20047;-68
2023/12/03 02:35:21;;;;;;;37.92;20.05;;;;;;;1.87;82.65;101941.00;7397555;19;20512;-68
2023/12/03 02:37:49;;;;;;;40.92;20.88;;;;;;;1.77;82.79;101928.16;7395721;19;20022;-68
2023/12/03 02:40:17;;;;;;;39.08;20.13;;;;;;;1.74;82.77;101939.50;7395283;19;20039;-68
2023/12/03 02:42:45;;;;;;;40.92;21.23;;;;;;;1.80;82.89;101926.34;7396475;19;20014;-68
2023/12/03 02:45:13;;;;;;;38.55;20.70;;;;;;;1.77;82.98;101941.19;7397337;19;20035;-68
2023/12/03 02:47:41;;;;;;;37.88;19.83;;;;;;;1.79;83.34;101940.25;7396791;19;20511;-68
2023/12/03 02:50:09;;;;;;;37.53;19.73;;;;;;;2.21;81.95;101937.72;7395164;19;20351;-68
2023/12/03 02:52:37;;;;;;;37.63;19.58;;;;;;;2.48;80.81;101941.56;7397186;19;20018;-68
2023/12/03 02:55:05;;;;;;;36.80;18.67;;;;;;;2.28;80.56;101938.47;7396842;19;20018;-68
2023/12/03 02:57:34;;;;;;;38.60;19.95;;;;;;;2.22;81.76;101936.00;7396725;19;20482;-68
2023/12/03 03:00:04;;;;;;;36.88;19.55;;;;;;;2.31;81.42;101943.66;7395451;19;20022;-69
2023/12/03 03:02:33;;;;;;;36.75;19.48;;;;;;;2.40;80.86;101946.06;7396223;19;20047;-69
2023/12/03 03:05:00;;;;;;;38.15;19.90;;;;;;;2.46;80.33;101953.78;7394823;19;20014;-68
2023/12/03 03:07:29;;;;;;;34.78;19.77;;;;;;;2.49;80.26;101953.72;7394772;19;20385;-69
2023/12/03 03:09:57;;;;;;;37.30;19.10;;;;;;;2.48;80.45;101959.88;7393567;19;20025;-68
2023/12/03 03:12:25;;;;;;;36.75;19.23;;;;;;;2.46;80.47;101948.56;7396045;19;20025;-68
2023/12/03 03:14:52;;;;;;;40.00;20.90;;;;;;;2.45;80.72;101952.06;7394965;19;20039;-68
2023/12/03 03:17:20;;;;;;;38.95;20.85;;;;;;;2.42;80.75;101953.00;7396286;19;20023;-67
2023/12/03 03:19:48;;;;;;;41.47;20.88;;;;;;;2.40;81.15;101946.06;7392935;19;20490;-67
2023/12/03 03:22:16;;;;;;;40.63;20.55;;;;;;;2.39;81.18;101946.97;7396219;19;20014;-67
2023/12/03 03:24:44;;;;;;;45.38;21.73;;;;;;;2.45;80.80;101946.84;7396067;19;20022;-68
2023/12/03 03:27:12;;;;;;;44.10;21.52;;;;;;;2.53;80.88;101949.31;7394067;19;20018;-68
2023/12/03 03:29:40;;;;;;;40.75;21.30;;;;;;;2.57;80.96;101945.72;7394921;19;20023;-68
2023/12/03 03:32:08;;;;;;;38.28;19.48;;;;;;;2.60;81.11;101951.75;7393819;19;20392;-68
2023/12/03 03:34:35;;;;;;;42.50;20.23;;;;;;;2.57;80.76;101956.19;7394336;19;20043;-68
2023/12/03 03:37:05;;;;;;;43.38;20.95;;;;;;;2.61;80.85;101957.84;7395138;19;20482;-67
2023/12/03 03:39:33;;;;;;;37.65;19.88;;;;;;;2.60;80.93;101950.91;7393771;19;20019;-66
2023/12/03 03:42:00;;;;;;;41.72;20.60;;;;;;;2.70;80.89;101955.00;7394795;19;20014;-66
2023/12/03 03:44:28;;;;;;;42.78;21.10;;;;;;;2.39;80.87;101963.50;7393398;19;20022;-65
2023/12/03 03:46:56;;;;;;;40.67;20.05;;;;;;;2.23;82.54;101956.88;7394497;19;20500;-65
2023/12/03 03:49:27;;;;;;;38.28;19.88;;;;;;;2.19;82.78;101961.28;7395233;19;20370;-65
2023/12/03 03:51:55;;;;;;;40.88;20.55;;;;;;;2.47;82.32;101971.19;7394260;19;20078;-67
2023/12/03 03:54:22;;;;;;;40.00;20.25;;;;;;;2.67;80.99;101960.31;7394572;19;20022;-68
2023/12/03 03:56:50;;;;;;;40.40;19.85;;;;;;;2.56;80.75;101971.03;7393336;19;20437;-68
2023/12/03 03:59:18;;;;;;;40.13;20.42;;;;;;;2.66;80.66;101969.91;7394567;19;20028;-68
2023/12/03 04:01:46;;;;;;;42.30;21.55;;;;;;;2.67;80.08;101978.59;7392607;19;20011;-68
2023/12/03 04:04:14;;;;;;;42.65;21.77;;;;;;;2.29;81.15;101980.28;7392745;19;20077;-67
2023/12/03 04:06:44;;;;;;;39.90;20.33;;;;;;;1.99;82.86;101984.31;7394359;19;20014;-68
2023/12/03 04:09:13;;;;;;;41.17;21.33;;;;;;;1.86;83.52;101983.66;7394313;19;20022;-68
2023/12/03 04:11:43;;;;;;;42.72;21.02;;;;;;;2.01;83.62;101985.16;7390515;19;20048;-66
2023/12/03 04:14:12;;;;;;;44.78;21.20;;;;;;;2.31;82.14;101988.06;7394482;19;20014;-67
2023/12/03 04:16:41;;;;;;;44.78;22.50;;;;;;;2.40;81.25;101991.38;7392758;19;20014;-68
2023/12/03 04:19:08;;;;;;;45.58;22.23;;;;;;;2.08;82.32;101994.59;7393847;19;20043;-68
2023/12/03 04:21:36;;;;;;;48.10;22.08;;;;;;;1.87;83.53;101988.03;7391182;19;20102;-68
2023/12/03 04:24:04;;;;;;;48.28;21.60;;;;;;;1.94;83.88;101999.19;7392916;19;20023;-69
2023/12/03 04:26:32;;;;;;;46.47;21.63;;;;;;;2.04;83.77;101998.16;7393816;19;20022;-69
2023/12/03 04:29:00;;;;;;;44.22;21.30;;;;;;;2.44;82.64;101998.28;7393630;19;20022;-69
2023/12/03 04:31:28;;;;;;;40.28;20.70;;;;;;;2.52;81.30;101992.88;7391382;19;20026;-69
2023/12/03 04:33:59;;;;;;;46.55;21.35;;;;;;;2.31;82.02;101995.91;7391213;19;20018;-68
2023/12/03 04:36:27;;;;;;;45.92;21.02;;;;;;;2.53;81.48;102001.59;7393181;19;20082;-68
2023/12/03 04:38:55;;;;;;;41.45;19.83;;;;;;;2.60;81.26;102003.19;7392937;19;20030;-68
2023/12/03 04:41:23;;;;;;;43.17;21.13;;;;;;;2.40;81.35;102003.56;7391088;19;20338;-70
2023/12/03 04:43:51;;;;;;;45.45;21.00;;;;;;;2.53;81.59;101998.97;7392817;19;20098;-70
2023/12/03 04:46:19;;;;;;;46.45;20.10;;;;;;;2.34;81.67;101994.09;7393915;19;20022;-71
2023/12/03 04:48:47;;;;;;;39.63;19.70;;;;;;;2.46;81.88;101994.75;7393690;19;20014;-71
2023/12/03 04:51:14;;;;;;;45.25;19.77;;;;;;;2.31;81.56;102003.75;7390110;19;20015;-71
2023/12/03 04:53:42;;;;;;;44.05;19.83;;;;;;;2.20;82.14;102007.44;7395582;19;20590;-71
2023/12/03 04:56:10;;;;;;;42.20;19.70;;;;;;;2.04;83.19;102012.97;7393597;19;20029;-71
2023/12/03 04:58:38;;;;;;;49.13;20.40;;;;;;;2.04;83.59;102012.97;7391481;19;20021;-67
2023/12/03 05:01:06;;;;;;;42.22;20.27;;;;;;;2.16;83.36;102018.81;7391203;19;20772;-66
2023/12/03 05:03:34;;;;;;;46.20;21.17;;;;;;;2.15;83.30;102016.25;7390555;19;20019;-68
2023/12/03 05:06:02;;;;;;;46.65;20.42;;;;;;;2.14;83.48;102018.00;7392819;19;20014;-66
2023/12/03 05:08:30;;;;;;;44.63;20.33;;;;;;;2.40;82.74;102017.53;7392702;19;20086;-66
2023/12/03 05:10:57;;;;;;;49.50;20.75;;;;;;;2.55;81.79;102018.09;7391505;19;20493;-65
2023/12/03 05:13:28;;;;;;;50.80;21.48;;;;;;;2.54;81.89;102022.47;7390727;19;20007;-65
2023/12/03 05:15:56;;;;;;;46.47;20.92;;;;;;;2.29;82.17;102024.72;7391831;19;20030;-66
2023/12/03 05:18:23;;;;;;;48.42;21.20;;;;;;;2.06;83.38;102029.47;7390609;19;20049;-66
2023/12/03 05:20:52;;;;;;;48.63;21.40;;;;;;;2.24;83.01;102029.13;7390055;19;20431;-66
2023/12/03 05:23:19;;;;;;;42.53;19.58;;;;;;;2.33;82.36;102041.19;7391489;19;20018;-67
2023/12/03 05:25:47;;;;;;;46.08;20.63;;;;;;;2.50;81.79;102033.88;7391912;19;20014;-67
2023/12/03 05:28:15;;;;;;;45.20;19.40;;;;;;;2.52;80.89;102041.69;7392441;19;20029;-67
2023/12/03 05:30:43;;;;;;;42.15;19.45;;;;;;;2.04;82.45;102039.94;7389856;19;20047;-67
2023/12/03 05:33:11;;;;;;;43.10;19.77;;;;;;;2.35;82.42;102045.47;7391411;19;20089;-68
2023/12/03 05:35:39;;;;;;;47.35;21.67;;;;;;;2.55;81.30;102052.06;7391784;19;20018;-68
2023/12/03 05:38:07;;;;;;;45.08;20.02;;;;;;;2.56;80.84;102056.44;7390027;19;20018;-68
2023/12/03 05:40:35;;;;;;;43.42;20.70;;;;;;;2.59;80.75;102065.06;7389605;19;20010;-68
2023/12/03 05:43:03;;;;;;;44.38;19.83;;;;;;;2.44;81.20;102062.72;7391228;19;20027;-66
2023/12/03 05:45:31;;;;;;;46.03;20.23;;;;;;;2.55;80.77;102059.94;7389309;19;20049;-66
2023/12/03 05:48:00;;;;;;;39.17;19.10;;;;;;;2.56;80.79;102066.91;7391308;19;20549;-66
2023/12/03 05:50:28;;;;;;;47.65;20.33;;;;;;;2.49;80.52;102065.28;7389685;19;20030;-66
2023/12/03 05:52:56;;;;;;;39.53;19.02;;;;;;;2.27;81.83;102068.28;7391602;19;20026;-67
2023/12/03 05:55:24;;;;;;;50.40;21.08;;;;;;;2.05;82.45;102074.78;7391618;19;20019;-67
2023/12/03 05:57:52;;;;;;;46.80;20.13;;;;;;;2.36;82.25;102078.56;7391324;19;20015;-66
2023/12/03 06:00:20;;;;;;;49.28;21.98;;;;;;;2.56;81.14;102082.59;7390076;19;20377;-65
2023/12/03 06:02:48;;;;;;;47.15;20.52;;;;;;;2.59;80.79;102085.13;7394888;19;20018;-66
2023/12/03 06:05:15;;;;;;;54.03;22.05;;;;;;;2.20;81.78;102074.50;7394609;19;20018;-66
2023/12/03 06:07:43;;;;;;;48.42;21.33;;;;;;;2.08;82.76;102082.56;7394585;19;20014;-66
2023/12/03 06:10:11;;;;;;;47.53;20.85;;;;;;;2.19;82.88;102078.03;7396232;19;20015;-67
2023/12/03 06:12:39;;;;;;;49.60;22.67;;;;;;;2.30;82.07;102076.06;7398102;19;20039;-67
2023/12/03 06:15:07;;;;;;;47.33;20.58;;;;;;;2.49;81.74;102075.75;7397856;19;20438;-67
2023/12/03 06:17:35;;;;;;;45.90;20.90;;;;;;;2.60;80.97;102079.03;7398002;19;20030;-67
2023/12/03 06:20:03;;;;;;;48.20;21.35;;;;;;;2.66;80.71;102078.88;7396919;19;20051;-67
2023/12/03 06:22:31;;;;;;;48.80;21.45;;;;;;;2.63;80.70;102071.09;7396180;19;20043;-67
2023/12/03 06:24:59;;;;;;;46.70;20.17;;;;;;;2.52;81.18;102084.41;7396048;19;20357;-67
2023/12/03 06:27:27;;;;;;;45.30;21.50;;;;;;;2.64;80.58;102081.53;7397963;19;20019;-67
2023/12/03 06:29:54;;;;;;;49.45;22.83;;;;;;;2.43;81.42;102084.56;7396622;19;20018;-67
2023/12/03 06:32:22;;;;;;;48.55;22.23;;;;;;;2.35;81.79;102087.31;7397378;19;20078;-67
2023/12/03 06:34:50;;;;;;;53.45;23.08;;;;;;;2.59;81.04;102091.22;7397340;19;20022;-67
2023/12/03 06:37:18;;;;;;;52.20;23.27;;;;;;;2.51;80.64;102090.50;7397376;19;20029;-67
2023/12/03 06:39:47;;;;;;;50.88;22.63;;;;;;;2.39;81.63;102086.34;7395837;19;20475;-67
2023/12/03 06:42:15;;;;;;;48.53;22.10;;;;;;;2.44;81.17;102100.22;7396434;19;20043;-67
2023/12/03 06:44:43;;;;;;;57.72;23.63;;;;;;;2.10;82.38;102102.56;7395395;19;20025;-67
2023/12/03 06:47:11;;;;;;;51.28;23.45;;;;;;;2.29;82.40;102100.50;7396493;19;20025;-67
2023/12/03 06:49:41;;;;;;;53.60;21.88;;;;;;;2.03;83.22;102111.38;7396282;19;20023;-67
2023/12/03 06:52:09;;;;;;;45.45;21.63;;;;;;;2.10;83.29;102120.84;7398012;19;20007;-67
2023/12/03 06:54:37;;;;;;;50.92;22.40;;;;;;;2.14;82.63;102124.28;7396527;19;20022;-67
2023/12/03 06:57:06;;;;;;;44.13;20.83;;;;;;;1.93;83.44;102122.84;7396547;19;20030;-67
2023/12/03 06:59:33;;;;;;;47.90;22.35;;;;;;;1.82;84.13;102117.78;7395515;19;20379;-67
2023/12/03 07:02:01;;;;;;;48.78;22.27;;;;;;;2.22;83.35;102124.16;7396406;19;20018;-67
2023/12/03 07:04:29;;;;;;;50.22;21.98;;;;;;;2.36;81.78;102119.53;7395492;19;20018;-67
2023/12/03 07:06:59;;;;;;;50.30;22.38;;;;;;;2.23;82.20;102120.66;7395902;19;20086;-67
2023/12/03 07:09:32;;;;;;;48.25;21.80;;;;;;;2.21;82.37;102125.88;7395770;19;20019;-67
2023/12/03 07:12:07;;;;;;;49.97;22.42;;;;;;;2.35;81.74;102121.28;7396273;19;20018;-67
2023/12/03 07:14:36;;;;;;;51.05;23.10;;;;;;;2.50;81.16;102128.00;7394146;19;20381;-67
2023/12/03 07:17:04;;;;;;;49.63;22.00;;;;;;;2.25;82.02;102130.19;7396290;19;20043;-67
2023/12/03 07:19:32;;;;;;;49.28;22.67;;;;;;;2.25;82.30;102126.69;7394900;19;20098;-67
2023/12/03 07:22:03;;;;;;;48.60;21.00;;;;;;;2.37;82.23;102129.13;7395885;19;20388;-67
2023/12/03 07:24:31;;;;;;;45.92;22.15;;;;;;;2.43;81.46;102136.81;7394868;19;20112;-67
2023/12/03 07:26:59;;;;;;;51.33;23.02;;;;;;;2.50;81.95;102141.06;7393730;19;20367;-67
2023/12/03 07:29:26;;;;;;;46.42;21.85;;;;;;;2.64;81.07;102146.91;7395190;19;20023;-67
2023/12/03 07:31:54;;;;;;;45.65;20.58;;;;;;;2.52;81.15;102148.88;7395733;19;20022;-67
2023/12/03 07:34:22;;;;;;;47.67;21.98;;;;;;;2.33;81.96;102146.59;7395737;19;20093;-67
2023/12/03 07:36:50;;;;;;;50.55;22.15;;;;;;;2.39;82.13;102140.38;7396360;19;20022;-67
2023/12/03 07:39:18;;;;;;;47.17;21.95;;;;;;;2.46;82.01;102144.63;7394796;19;20022;-67
2023/12/03 07:41:53;;;;;;;47.90;21.77;;;;;;;2.67;81.95;102143.34;7392726;19;20021;-67
2023/12/03 07:44:21;;;;;;;47.30;21.65;;;;;;;2.72;81.06;102140.69;7394431;19;20388;-67
2023/12/03 07:46:52;;;;;;;51.15;24.33;;;;;;;2.69;81.75;102141.59;7395613;19;20019;-67
2023/12/03 07:49:19;;;;;;;52.47;25.42;;;;;;;2.63;81.12;102142.59;7394831;19;20043;-67
2023/12/03 07:51:47;;;;;;;50.08;25.17;;;;;;;2.49;81.77;102141.09;7390655;19;20352;-67
2023/12/03 07:54:16;;;;;;;43.97;21.15;;;;;;;2.44;82.46;102143.78;7394960;19;20014;-67
2023/12/03 07:56:44;;;;;;;44.25;21.23;;;;;;;2.60;82.13;102158.31;7394700;19;20025;-67
2023/12/03 07:59:12;;;;;;;41.38;19.58;;;;;;;2.76;81.59;102152.81;7394402;19;20014;-67
2023/12/03 08:01:40;;;;;;;38.47;18.98;;;;;;;2.67;81.10;102153.81;7391745;19;20507;-67
2023/12/03 08:04:08;;;;;;;38.30;17.58;;;;;;;2.78;81.40;102151.88;7394180;19;20025;-67
2023/12/03 08:06:36;;;;;;;36.90;17.35;;;;;;;2.79;80.95;102152.75;7392499;19;20022;-67
2023/12/03 08:09:04;;;;;;;32.03;15.38;;;;;;;2.97;80.24;102155.00;7392422;19;20078;-67
2023/12/03 08:11:31;;;;;;;30.35;15.60;;;;;;;3.12;79.53;102157.31;7390223;19;20018;-67
2023/12/03 08:13:59;;;;;;;32.20;16.08;;;;;;;3.09;78.95;102149.56;7392701;19;20029;-67
2023/12/03 08:16:28;;;;;;;31.88;15.98;;;;;;;3.01;79.47;102154.03;7393851;19;20023;-67
2023/12/03 08:18:55;;;;;;;27.27;13.98;;;;;;;3.13;78.70;102150.34;7393673;19;20019;-67
2023/12/03 08:21:23;;;;;;;28.58;14.05;;;;;;;3.13;78.50;102145.97;7391511;19;20367;-67
2023/12/03 08:23:52;;;;;;;26.42;13.90;;;;;;;3.11;78.40;102152.97;7393982;19;20032;-67
2023/12/03 08:26:19;;;;;;;26.80;13.90;;;;;;;3.14;78.04;102142.47;7387209;19;20022;-67
2023/12/03 08:28:47;;;;;;;28.10;13.18;;;;;;;3.14;77.81;102155.53;7394725;19;20014;-67
2023/12/03 08:31:15;;;;;;;25.55;13.38;;;;;;;3.15;78.07;102148.56;7391233;19;20018;-67
2023/12/03 08:33:45;;;;;;;26.83;12.55;;;;;;;3.15;77.70;102154.63;7393165;19;20479;-67
2023/12/03 08:36:18;;;;;;;24.10;13.27;;;;;;;3.25;77.65;102157.94;7393161;19;20506;-67
2023/12/03 08:38:46;;;;;;;28.05;13.40;;;;;;;3.18;78.03;102157.19;7393336;19;20010;-68
2023/12/03 08:41:14;;;;;;;29.08;13.85;;;;;;;3.29;77.62;102163.97;7391265;19;20014;-68
2023/12/03 08:43:41;;;;;;;25.02;12.60;;;;;;;3.31;77.50;102165.66;7393631;19;20022;-67
2023/12/03 08:46:09;;;;;;;25.60;12.68;;;;;;;3.26;77.53;102179.75;7390904;19;20022;-67
2023/12/03 08:48:37;;;;;;;27.88;13.35;;;;;;;3.35;77.39;102166.47;7393192;19;20027;-67
2023/12/03 08:51:06;;;;;;;25.90;12.95;;;;;;;3.45;76.68;102177.63;7390773;19;20397;-67
2023/12/03 08:53:33;;;;;;;23.17;12.45;;;;;;;3.27;76.74;102182.31;7392881;19;20029;-67
2023/12/03 08:56:01;;;;;;;23.58;12.90;;;;;;;3.26;77.60;102178.00;7391330;19;20014;-67
2023/12/03 08:58:29;;;;;;;27.10;13.70;;;;;;;3.32;77.68;102180.50;7392898;19;20530;-67
2023/12/03 09:00:57;;;;;;;23.63;12.50;;;;;;;3.39;77.40;102179.44;7389546;19;20018;-67
2023/12/03 09:03:25;;;;;;;25.77;13.15;;;;;;;3.42;77.36;102195.09;7392529;19;20429;-67
2023/12/03 09:05:54;;;;;;;25.45;12.70;;;;;;;3.45;77.07;102199.41;7391182;19;20026;-67
2023/12/03 09:08:22;;;;;;;24.67;12.20;;;;;;;3.30;76.97;102190.13;7392107;19;20093;-67
2023/12/03 09:10:49;;;;;;;23.00;12.48;;;;;;;3.36;77.37;102195.25;7390460;19;20014;-67
2023/12/03 09:13:17;;;;;;;24.63;12.75;;;;;;;3.38;77.29;102203.91;7392017;19;20043;-67
2023/12/03 09:15:45;;;;;;;26.10;13.00;;;;;;;3.32;77.45;102204.06;7390541;19;20089;-67
2023/12/03 09:18:13;;;;;;;24.27;12.13;;;;;;;3.32;77.25;102211.91;7391971;19;20025;-67
2023/12/03 09:20:41;;;;;;;24.45;12.68;;;;;;;3.40;77.23;102211.75;7390774;19;20038;-67
2023/12/03 09:23:09;;;;;;;26.75;13.60;;;;;;;3.33;77.68;102211.00;7392323;19;20045;-67
2023/12/03 09:25:37;;;;;;;25.40;13.30;;;;;;;3.39;77.51;102216.09;7390570;19;20420;-69
2023/12/03 09:28:05;;;;;;;26.65;13.93;;;;;;;3.44;77.03;102218.66;7391715;19;20011;-68
2023/12/03 09:30:33;;;;;;;24.48;13.70;;;;;;;3.39;77.27;102215.25;7389808;19;20018;-68
2023/12/03 09:33:01;;;;;;;28.35;14.98;;;;;;;3.43;77.74;102216.91;7390966;19;20377;-67
2023/12/03 09:35:31;;;;;;;28.90;14.27;;;;;;;3.50;77.50;102225.50;7391505;19;20044;-68
2023/12/03 09:37:59;;;;;;;29.08;14.93;;;;;;;3.40;77.69;102225.69;7396067;19;20114;-68
2023/12/03 09:40:27;;;;;;;27.35;13.38;;;;;;;3.34;77.87;102222.34;7396148;19;20082;-68
2023/12/03 09:42:57;;;;;;;28.52;14.27;;;;;;;3.28;78.16;102223.34;7399329;19;20520;-68
2023/12/03 09:45:27;;;;;;;27.05;13.98;;;;;;;3.34;78.03;102222.34;7398316;19;20022;-67
2023/12/03 09:48:00;;;;;;;30.85;15.07;;;;;;;3.40;77.85;102230.94;7397799;19;20092;-67
2023/12/03 09:50:31;;;;;;;31.23;14.68;;;;;;;3.34;77.89;102222.34;7396751;19;20383;-67
2023/12/03 09:53:01;;;;;;;30.65;15.93;;;;;;;3.34;78.20;102228.44;7397315;19;20562;-67
2023/12/03 09:55:31;;;;;;;30.23;14.60;;;;;;;3.26;78.22;102221.63;7398588;19;20025;-67
2023/12/03 09:58:00;;;;;;;31.63;15.82;;;;;;;3.27;78.46;102229.44;7398088;19;20025;-67
2023/12/03 10:00:31;;;;;;;31.35;15.85;;;;;;;3.26;78.72;102225.09;7396294;19;20018;-67
2023/12/03 10:02:59;;;;;;;30.48;15.23;;;;;;;3.31;79.00;102232.88;7397892;19;20093;-67
2023/12/03 10:05:27;;;;;;;33.58;16.48;;;;;;;3.38;78.70;102232.72;7397104;19;20102;-67
2023/12/03 10:07:55;;;;;;;32.20;15.57;;;;;;;3.35;78.53;102229.28;7398518;19;20110;-67
2023/12/03 10:10:30;;;;;;;35.63;16.52;;;;;;;3.35;78.46;102232.75;7396477;19;20357;-68
2023/12/03 10:12:59;;;;;;;33.45;17.65;;;;;;;3.45;78.75;102233.47;7396429;19;20039;-67
2023/12/03 10:15:28;;;;;;;33.28;17.67;;;;;;;3.40;78.80;102230.94;7397258;19;20031;-67
2023/12/03 10:17:56;;;;;;;31.85;16.95;;;;;;;3.41;78.64;102229.19;7397858;19;20479;-67
2023/12/03 10:20:27;;;;;;;33.72;17.25;;;;;;;3.45;78.48;102224.75;7394781;19;20018;-67
2023/12/03 10:23:00;;;;;;;34.60;16.83;;;;;;;3.50;78.29;102226.38;7397747;19;20760;-67
2023/12/03 10:25:28;;;;;;;33.42;16.52;;;;;;;3.45;78.47;102227.38;7395423;19;20022;-68
2023/12/03 10:28:01;;;;;;;30.00;15.23;;;;;;;3.41;78.65;102227.41;7396107;19;20018;-69
2023/12/03 10:30:30;;;;;;;30.77;14.73;;;;;;;3.42;78.35;102216.03;7396632;19;20011;-68
2023/12/03 10:32:58;;;;;;;29.20;15.23;;;;;;;3.58;77.98;102223.59;7397894;19;20487;-68
2023/12/03 10:35:33;;;;;;;30.73;15.93;;;;;;;3.51;78.00;102220.25;7394731;19;20019;-67
2023/12/03 10:38:04;;;;;;;;;;;;;;;3.47;78.09;102221.19;7397522;19;20085;-68
2023/12/03 10:40:35;;;;;;;30.52;15.05;;;;;;;3.42;78.46;102220.41;7394758;19;19918;-67
2023/12/03 10:43:03;;;;;;;29.23;14.50;;;;;;;3.54;78.12;102225.41;7397176;19;20499;-67
2023/12/03 10:45:32;;;;;;;31.45;14.75;;;;;;;3.61;77.95;102220.91;7396515;19;20089;-67
2023/12/03 10:48:01;;;;;;;32.65;15.15;;;;;;;3.59;77.72;102222.72;7396748;19;20018;-68
2023/12/03 10:50:30;;;;;;;27.25;13.43;;;;;;;3.63;77.47;102229.59;7393509;19;20559;-67
2023/12/03 10:53:00;;;;;;;28.42;14.02;;;;;;;3.59;77.15;102226.19;7396978;19;20022;-67
2023/12/03 10:55:28;;;;;;;25.27;13.40;;;;;;;3.54;77.12;102228.03;7395240;19;20033;-68
2023/12/03 10:58:02;;;;;;;27.42;13.38;;;;;;;3.61;77.32;102231.38;7397219;19;20096;-68
2023/12/03 11:00:36;;;;;;;28.70;14.25;;;;;;;3.55;77.13;102235.00;7394469;19;20018;-68
2023/12/03 11:03:19;;;;;;;27.08;13.43;;;;;;;3.49;77.47;102222.03;7396297;19;20018;-68
2023/12/03 11:05:53;;;;;;;27.98;13.95;;;;;;;3.45;77.87;102225.59;7395351;19;20575;-68
2023/12/03 11:08:22;;;;;;;30.00;13.73;;;;;;;3.49;77.75;102223.78;7396426;19;20586;-68
2023/12/03 11:10:52;;;;;;;31.20;15.35;;;;;;;3.46;78.03;102222.09;7393177;19;20531;-67
2023/12/03 11:13:22;;;;;;;30.30;16.10;;;;;;;3.45;78.14;102216.88;7395881;19;20027;-67
2023/12/03 11:16:07;;;;;;;29.23;14.43;;;;;;;3.44;78.33;102228.28;7396046;19;20018;-67
2023/12/03 11:18:43;;;;;;;26.90;13.60;;;;;;;3.34;78.59;102225.81;7396720;19;20044;-67
2023/12/03 11:21:22;;;;;;;25.77;13.02;;;;;;;3.44;78.77;102231.75;7393301;19;20018;-67
2023/12/03 11:24:15;;;;;;;27.95;13.88;;;;;;;3.51;78.34;102221.97;7395835;19;20010;-67